<?xml version="1.0" encoding="UTF-8" standalone="no" ?>
<gpx xmlns="http://www.topografix.com/GPX/1/1" xmlns:xsi="http://www.w3.org/2001/XMLSchema-instance" xsi:schemaLocation="http://www.topografix.com/GPX/1/1 http://www.topografix.com/GPX/1/1/gpx.xsd" version="1.1" creator="VisuGPX - https://www.visugpx.com">
  <metadata>
    <name>RAQUETTE</name>
    <desc><![CDATA[SORTIE RAQUETTE ADEM
FICHIER MARC MOITRIER]]></desc>
  </metadata>
  <wpt lat="48.06572" lon="6.99552">
    <ele>1070.9296875</ele>
    <name><![CDATA[Hôtel de Balveurche]]></name>
    <desc><![CDATA[Chemin]]></desc>
    <cmt><![CDATA[Chemin]]></cmt>
  </wpt>
  <wpt lat="47.96034" lon="6.9213">
    <ele>1148</ele>
    <name><![CDATA[La Chaume à VENTRON]]></name>
    <desc><![CDATA[La Chaume

]]></desc>
    <cmt><![CDATA[La Chaume

]]></cmt>
  </wpt>
  <trk>
    <name><![CDATA[21-JAN-12 16:36:00]]></name>
    <trkseg>
      <trkpt lat="48.00341" lon="6.84824">
        <ele>855.23</ele>
        <time>2012-01-21T12:11:19Z</time>
      </trkpt>
      <trkpt lat="48.00341" lon="6.84825">
        <ele>858.11</ele>
        <time>2012-01-21T12:11:30Z</time>
      </trkpt>
      <trkpt lat="48.00343" lon="6.84822">
        <ele>861.48</ele>
        <time>2012-01-21T12:12:05Z</time>
      </trkpt>
      <trkpt lat="48.00343" lon="6.8482">
        <ele>860.04</ele>
        <time>2012-01-21T12:12:18Z</time>
      </trkpt>
      <trkpt lat="48.00342" lon="6.84823">
        <ele>861.48</ele>
        <time>2012-01-21T12:13:11Z</time>
      </trkpt>
      <trkpt lat="48.00342" lon="6.84823">
        <ele>860.52</ele>
        <time>2012-01-21T12:13:40Z</time>
      </trkpt>
      <trkpt lat="48.00342" lon="6.84823">
        <ele>860.04</ele>
        <time>2012-01-21T12:13:57Z</time>
      </trkpt>
      <trkpt lat="48.00335" lon="6.84805">
        <ele>860.52</ele>
        <time>2012-01-21T12:14:02Z</time>
      </trkpt>
      <trkpt lat="48.00342" lon="6.84825">
        <ele>864.36</ele>
        <time>2012-01-21T12:15:16Z</time>
      </trkpt>
      <trkpt lat="48.00342" lon="6.84824">
        <ele>863.4</ele>
        <time>2012-01-21T12:15:17Z</time>
      </trkpt>
      <trkpt lat="48.00342" lon="6.84824">
        <ele>859.08</ele>
        <time>2012-01-21T12:15:20Z</time>
      </trkpt>
      <trkpt lat="48.00339" lon="6.84819">
        <ele>862.92</ele>
        <time>2012-01-21T12:15:34Z</time>
      </trkpt>
      <trkpt lat="48.00338" lon="6.8482">
        <ele>862.44</ele>
        <time>2012-01-21T12:16:47Z</time>
      </trkpt>
      <trkpt lat="48.00338" lon="6.8482">
        <ele>867.25</ele>
        <time>2012-01-21T14:14:06Z</time>
      </trkpt>
      <trkpt lat="48.00369" lon="6.84745">
        <ele>866.29</ele>
        <time>2012-01-21T14:14:08Z</time>
      </trkpt>
      <trkpt lat="48.00361" lon="6.84771">
        <ele>868.69</ele>
        <time>2012-01-21T14:14:20Z</time>
      </trkpt>
      <trkpt lat="48.0036" lon="6.84775">
        <ele>865.32</ele>
        <time>2012-01-21T14:14:22Z</time>
      </trkpt>
      <trkpt lat="48.0036" lon="6.84781">
        <ele>868.21</ele>
        <time>2012-01-21T14:14:32Z</time>
      </trkpt>
      <trkpt lat="48.00358" lon="6.84785">
        <ele>869.65</ele>
        <time>2012-01-21T14:14:37Z</time>
      </trkpt>
      <trkpt lat="48.00348" lon="6.84795">
        <ele>868.69</ele>
        <time>2012-01-21T14:14:54Z</time>
      </trkpt>
      <trkpt lat="48.00347" lon="6.84803">
        <ele>867.73</ele>
        <time>2012-01-21T14:15:08Z</time>
      </trkpt>
      <trkpt lat="48.00348" lon="6.84793">
        <ele>870.61</ele>
        <time>2012-01-21T14:15:16Z</time>
      </trkpt>
      <trkpt lat="48.00345" lon="6.84784">
        <ele>869.65</ele>
        <time>2012-01-21T14:15:26Z</time>
      </trkpt>
      <trkpt lat="48.00339" lon="6.84782">
        <ele>870.13</ele>
        <time>2012-01-21T14:15:36Z</time>
      </trkpt>
      <trkpt lat="48.00334" lon="6.84786">
        <ele>872.05</ele>
        <time>2012-01-21T14:15:41Z</time>
      </trkpt>
      <trkpt lat="48.00318" lon="6.84798">
        <ele>874.94</ele>
        <time>2012-01-21T14:15:57Z</time>
      </trkpt>
      <trkpt lat="48.00317" lon="6.84798">
        <ele>874.46</ele>
        <time>2012-01-21T14:15:58Z</time>
      </trkpt>
      <trkpt lat="48.00301" lon="6.848">
        <ele>874.94</ele>
        <time>2012-01-21T14:16:13Z</time>
      </trkpt>
      <trkpt lat="48.00281" lon="6.84808">
        <ele>875.9</ele>
        <time>2012-01-21T14:16:30Z</time>
      </trkpt>
      <trkpt lat="48.00261" lon="6.84801">
        <ele>878.3</ele>
        <time>2012-01-21T14:16:49Z</time>
      </trkpt>
      <trkpt lat="48.00243" lon="6.84793">
        <ele>879.74</ele>
        <time>2012-01-21T14:17:07Z</time>
      </trkpt>
      <trkpt lat="48.00228" lon="6.84784">
        <ele>882.15</ele>
        <time>2012-01-21T14:17:22Z</time>
      </trkpt>
      <trkpt lat="48.00218" lon="6.84779">
        <ele>884.07</ele>
        <time>2012-01-21T14:17:36Z</time>
      </trkpt>
      <trkpt lat="48.00201" lon="6.84769">
        <ele>886.95</ele>
        <time>2012-01-21T14:17:53Z</time>
      </trkpt>
      <trkpt lat="48.0019" lon="6.84761">
        <ele>889.84</ele>
        <time>2012-01-21T14:18:06Z</time>
      </trkpt>
      <trkpt lat="48.00184" lon="6.84755">
        <ele>891.28</ele>
        <time>2012-01-21T14:18:17Z</time>
      </trkpt>
      <trkpt lat="48.00171" lon="6.84745">
        <ele>893.2</ele>
        <time>2012-01-21T14:18:32Z</time>
      </trkpt>
      <trkpt lat="48.00162" lon="6.84739">
        <ele>895.12</ele>
        <time>2012-01-21T14:18:46Z</time>
      </trkpt>
      <trkpt lat="48.00153" lon="6.84729">
        <ele>897.05</ele>
        <time>2012-01-21T14:18:58Z</time>
      </trkpt>
      <trkpt lat="48.00143" lon="6.84721">
        <ele>900.41</ele>
        <time>2012-01-21T14:19:08Z</time>
      </trkpt>
      <trkpt lat="48.00135" lon="6.84712">
        <ele>900.89</ele>
        <time>2012-01-21T14:19:19Z</time>
      </trkpt>
      <trkpt lat="48.00133" lon="6.8471">
        <ele>901.37</ele>
        <time>2012-01-21T14:19:21Z</time>
      </trkpt>
      <trkpt lat="48.00115" lon="6.84686">
        <ele>902.33</ele>
        <time>2012-01-21T14:19:40Z</time>
      </trkpt>
      <trkpt lat="48.00104" lon="6.84669">
        <ele>903.3</ele>
        <time>2012-01-21T14:19:55Z</time>
      </trkpt>
      <trkpt lat="48.00096" lon="6.84652">
        <ele>903.78</ele>
        <time>2012-01-21T14:20:08Z</time>
      </trkpt>
      <trkpt lat="48.00094" lon="6.84648">
        <ele>904.74</ele>
        <time>2012-01-21T14:20:11Z</time>
      </trkpt>
      <trkpt lat="48.00091" lon="6.84642">
        <ele>905.22</ele>
        <time>2012-01-21T14:20:15Z</time>
      </trkpt>
      <trkpt lat="48.00082" lon="6.84616">
        <ele>906.18</ele>
        <time>2012-01-21T14:20:32Z</time>
      </trkpt>
      <trkpt lat="48.00074" lon="6.84591">
        <ele>906.18</ele>
        <time>2012-01-21T14:20:48Z</time>
      </trkpt>
      <trkpt lat="48.00071" lon="6.84564">
        <ele>906.66</ele>
        <time>2012-01-21T14:21:05Z</time>
      </trkpt>
      <trkpt lat="48.00069" lon="6.84534">
        <ele>907.62</ele>
        <time>2012-01-21T14:21:23Z</time>
      </trkpt>
      <trkpt lat="48.00069" lon="6.84499">
        <ele>908.1</ele>
        <time>2012-01-21T14:21:42Z</time>
      </trkpt>
      <trkpt lat="48.00065" lon="6.84464">
        <ele>907.62</ele>
        <time>2012-01-21T14:22:02Z</time>
      </trkpt>
      <trkpt lat="48.00066" lon="6.84458">
        <ele>906.66</ele>
        <time>2012-01-21T14:22:05Z</time>
      </trkpt>
      <trkpt lat="48.00067" lon="6.84433">
        <ele>906.18</ele>
        <time>2012-01-21T14:22:20Z</time>
      </trkpt>
      <trkpt lat="48.0007" lon="6.84403">
        <ele>907.62</ele>
        <time>2012-01-21T14:22:37Z</time>
      </trkpt>
      <trkpt lat="48.00071" lon="6.84373">
        <ele>907.62</ele>
        <time>2012-01-21T14:22:55Z</time>
      </trkpt>
      <trkpt lat="48.00074" lon="6.8435">
        <ele>907.62</ele>
        <time>2012-01-21T14:23:07Z</time>
      </trkpt>
      <trkpt lat="48.00077" lon="6.84317">
        <ele>907.62</ele>
        <time>2012-01-21T14:23:25Z</time>
      </trkpt>
      <trkpt lat="48.00079" lon="6.84295">
        <ele>907.14</ele>
        <time>2012-01-21T14:23:37Z</time>
      </trkpt>
      <trkpt lat="48.00081" lon="6.84279">
        <ele>907.14</ele>
        <time>2012-01-21T14:23:45Z</time>
      </trkpt>
      <trkpt lat="48.00086" lon="6.84251">
        <ele>908.58</ele>
        <time>2012-01-21T14:24:03Z</time>
      </trkpt>
      <trkpt lat="48.00088" lon="6.84232">
        <ele>908.58</ele>
        <time>2012-01-21T14:24:15Z</time>
      </trkpt>
      <trkpt lat="48.00093" lon="6.84205">
        <ele>909.54</ele>
        <time>2012-01-21T14:24:30Z</time>
      </trkpt>
      <trkpt lat="48.00096" lon="6.84175">
        <ele>909.54</ele>
        <time>2012-01-21T14:24:47Z</time>
      </trkpt>
      <trkpt lat="48.001" lon="6.84157">
        <ele>909.06</ele>
        <time>2012-01-21T14:24:59Z</time>
      </trkpt>
      <trkpt lat="48.00102" lon="6.84154">
        <ele>910.03</ele>
        <time>2012-01-21T14:25:01Z</time>
      </trkpt>
      <trkpt lat="48.00102" lon="6.84145">
        <ele>908.58</ele>
        <time>2012-01-21T14:25:06Z</time>
      </trkpt>
      <trkpt lat="48.00107" lon="6.84116">
        <ele>909.06</ele>
        <time>2012-01-21T14:25:22Z</time>
      </trkpt>
      <trkpt lat="48.00113" lon="6.84097">
        <ele>909.06</ele>
        <time>2012-01-21T14:25:35Z</time>
      </trkpt>
      <trkpt lat="48.00115" lon="6.8408">
        <ele>909.54</ele>
        <time>2012-01-21T14:25:49Z</time>
      </trkpt>
      <trkpt lat="48.0012" lon="6.84065">
        <ele>909.54</ele>
        <time>2012-01-21T14:26:00Z</time>
      </trkpt>
      <trkpt lat="48.00128" lon="6.84051">
        <ele>909.06</ele>
        <time>2012-01-21T14:26:12Z</time>
      </trkpt>
      <trkpt lat="48.0013" lon="6.84042">
        <ele>909.06</ele>
        <time>2012-01-21T14:26:20Z</time>
      </trkpt>
      <trkpt lat="48.00136" lon="6.84034">
        <ele>909.06</ele>
        <time>2012-01-21T14:26:29Z</time>
      </trkpt>
      <trkpt lat="48.00139" lon="6.84026">
        <ele>909.54</ele>
        <time>2012-01-21T14:26:34Z</time>
      </trkpt>
      <trkpt lat="48.00143" lon="6.8401">
        <ele>910.03</ele>
        <time>2012-01-21T14:26:46Z</time>
      </trkpt>
      <trkpt lat="48.00145" lon="6.83994">
        <ele>910.51</ele>
        <time>2012-01-21T14:26:56Z</time>
      </trkpt>
      <trkpt lat="48.00147" lon="6.83988">
        <ele>910.99</ele>
        <time>2012-01-21T14:27:02Z</time>
      </trkpt>
      <trkpt lat="48.00154" lon="6.8397">
        <ele>911.47</ele>
        <time>2012-01-21T14:27:18Z</time>
      </trkpt>
      <trkpt lat="48.00155" lon="6.83954">
        <ele>911.47</ele>
        <time>2012-01-21T14:27:31Z</time>
      </trkpt>
      <trkpt lat="48.00156" lon="6.83935">
        <ele>910.51</ele>
        <time>2012-01-21T14:27:45Z</time>
      </trkpt>
      <trkpt lat="48.00154" lon="6.83921">
        <ele>909.54</ele>
        <time>2012-01-21T14:27:55Z</time>
      </trkpt>
      <trkpt lat="48.00148" lon="6.83904">
        <ele>908.1</ele>
        <time>2012-01-21T14:28:09Z</time>
      </trkpt>
      <trkpt lat="48.00146" lon="6.83897">
        <ele>907.14</ele>
        <time>2012-01-21T14:28:14Z</time>
      </trkpt>
      <trkpt lat="48.00139" lon="6.83881">
        <ele>906.18</ele>
        <time>2012-01-21T14:28:25Z</time>
      </trkpt>
      <trkpt lat="48.00131" lon="6.83864">
        <ele>904.74</ele>
        <time>2012-01-21T14:28:36Z</time>
      </trkpt>
      <trkpt lat="48.00131" lon="6.83859">
        <ele>903.78</ele>
        <time>2012-01-21T14:28:41Z</time>
      </trkpt>
      <trkpt lat="48.0013" lon="6.8385">
        <ele>903.3</ele>
        <time>2012-01-21T14:28:55Z</time>
      </trkpt>
      <trkpt lat="48.00133" lon="6.83855">
        <ele>904.26</ele>
        <time>2012-01-21T14:30:41Z</time>
      </trkpt>
      <trkpt lat="48.00134" lon="6.83858">
        <ele>904.26</ele>
        <time>2012-01-21T14:31:29Z</time>
      </trkpt>
      <trkpt lat="48.00134" lon="6.83855">
        <ele>903.78</ele>
        <time>2012-01-21T14:32:19Z</time>
      </trkpt>
      <trkpt lat="48.00132" lon="6.83846">
        <ele>902.33</ele>
        <time>2012-01-21T14:32:34Z</time>
      </trkpt>
      <trkpt lat="48.00128" lon="6.83824">
        <ele>901.37</ele>
        <time>2012-01-21T14:32:48Z</time>
      </trkpt>
      <trkpt lat="48.00127" lon="6.83812">
        <ele>900.41</ele>
        <time>2012-01-21T14:33:00Z</time>
      </trkpt>
      <trkpt lat="48.00124" lon="6.83797">
        <ele>900.41</ele>
        <time>2012-01-21T14:33:13Z</time>
      </trkpt>
      <trkpt lat="48.00121" lon="6.83778">
        <ele>899.93</ele>
        <time>2012-01-21T14:34:15Z</time>
      </trkpt>
      <trkpt lat="48.00118" lon="6.83764">
        <ele>899.93</ele>
        <time>2012-01-21T14:34:24Z</time>
      </trkpt>
      <trkpt lat="48.00116" lon="6.83752">
        <ele>898.01</ele>
        <time>2012-01-21T14:34:36Z</time>
      </trkpt>
      <trkpt lat="48.00113" lon="6.83735">
        <ele>897.53</ele>
        <time>2012-01-21T14:34:50Z</time>
      </trkpt>
      <trkpt lat="48.00109" lon="6.83721">
        <ele>897.05</ele>
        <time>2012-01-21T14:35:02Z</time>
      </trkpt>
      <trkpt lat="48.00103" lon="6.83709">
        <ele>897.53</ele>
        <time>2012-01-21T14:35:15Z</time>
      </trkpt>
      <trkpt lat="48.00103" lon="6.83708">
        <ele>898.01</ele>
        <time>2012-01-21T14:35:18Z</time>
      </trkpt>
      <trkpt lat="48.00094" lon="6.83703">
        <ele>898.01</ele>
        <time>2012-01-21T14:35:31Z</time>
      </trkpt>
      <trkpt lat="48.0008" lon="6.83696">
        <ele>898.97</ele>
        <time>2012-01-21T14:35:45Z</time>
      </trkpt>
      <trkpt lat="48.0007" lon="6.83693">
        <ele>900.41</ele>
        <time>2012-01-21T14:35:57Z</time>
      </trkpt>
      <trkpt lat="48.00062" lon="6.8369">
        <ele>900.89</ele>
        <time>2012-01-21T14:36:07Z</time>
      </trkpt>
      <trkpt lat="48.00051" lon="6.83678">
        <ele>903.78</ele>
        <time>2012-01-21T14:36:22Z</time>
      </trkpt>
      <trkpt lat="48.00044" lon="6.83666">
        <ele>901.85</ele>
        <time>2012-01-21T14:36:34Z</time>
      </trkpt>
      <trkpt lat="48.00035" lon="6.83656">
        <ele>898.49</ele>
        <time>2012-01-21T14:36:51Z</time>
      </trkpt>
      <trkpt lat="48.00019" lon="6.83645">
        <ele>896.57</ele>
        <time>2012-01-21T14:37:03Z</time>
      </trkpt>
      <trkpt lat="48.00011" lon="6.83634">
        <ele>893.68</ele>
        <time>2012-01-21T14:37:17Z</time>
      </trkpt>
      <trkpt lat="48.00007" lon="6.83627">
        <ele>891.76</ele>
        <time>2012-01-21T14:37:24Z</time>
      </trkpt>
      <trkpt lat="47.99994" lon="6.83614">
        <ele>890.8</ele>
        <time>2012-01-21T14:37:36Z</time>
      </trkpt>
      <trkpt lat="47.99987" lon="6.83608">
        <ele>890.8</ele>
        <time>2012-01-21T14:37:50Z</time>
      </trkpt>
      <trkpt lat="47.99975" lon="6.83593">
        <ele>889.84</ele>
        <time>2012-01-21T14:38:02Z</time>
      </trkpt>
      <trkpt lat="47.99972" lon="6.83589">
        <ele>888.4</ele>
        <time>2012-01-21T14:38:17Z</time>
      </trkpt>
      <trkpt lat="47.99965" lon="6.83564">
        <ele>887.91</ele>
        <time>2012-01-21T14:44:44Z</time>
      </trkpt>
      <trkpt lat="47.99956" lon="6.83561">
        <ele>886.95</ele>
        <time>2012-01-21T14:44:56Z</time>
      </trkpt>
      <trkpt lat="47.99949" lon="6.8356">
        <ele>884.55</ele>
        <time>2012-01-21T14:45:04Z</time>
      </trkpt>
      <trkpt lat="47.99946" lon="6.8356">
        <ele>884.55</ele>
        <time>2012-01-21T14:45:06Z</time>
      </trkpt>
      <trkpt lat="47.99938" lon="6.83561">
        <ele>883.59</ele>
        <time>2012-01-21T14:45:10Z</time>
      </trkpt>
      <trkpt lat="47.99928" lon="6.83563">
        <ele>884.07</ele>
        <time>2012-01-21T14:45:21Z</time>
      </trkpt>
      <trkpt lat="47.99917" lon="6.83562">
        <ele>880.71</ele>
        <time>2012-01-21T14:45:34Z</time>
      </trkpt>
      <trkpt lat="47.99908" lon="6.83564">
        <ele>881.67</ele>
        <time>2012-01-21T14:45:48Z</time>
      </trkpt>
      <trkpt lat="47.99904" lon="6.83564">
        <ele>880.71</ele>
        <time>2012-01-21T14:46:10Z</time>
      </trkpt>
      <trkpt lat="47.99893" lon="6.83573">
        <ele>878.3</ele>
        <time>2012-01-21T14:46:25Z</time>
      </trkpt>
      <trkpt lat="47.99881" lon="6.83575">
        <ele>875.9</ele>
        <time>2012-01-21T14:46:46Z</time>
      </trkpt>
      <trkpt lat="47.99874" lon="6.83575">
        <ele>873.01</ele>
        <time>2012-01-21T14:46:55Z</time>
      </trkpt>
      <trkpt lat="47.99864" lon="6.83571">
        <ele>872.53</ele>
        <time>2012-01-21T14:47:05Z</time>
      </trkpt>
      <trkpt lat="47.99848" lon="6.8357">
        <ele>871.09</ele>
        <time>2012-01-21T14:47:17Z</time>
      </trkpt>
      <trkpt lat="47.99841" lon="6.8357">
        <ele>870.13</ele>
        <time>2012-01-21T14:47:24Z</time>
      </trkpt>
      <trkpt lat="47.99834" lon="6.83571">
        <ele>870.13</ele>
        <time>2012-01-21T14:47:31Z</time>
      </trkpt>
      <trkpt lat="47.99827" lon="6.83567">
        <ele>867.73</ele>
        <time>2012-01-21T14:47:38Z</time>
      </trkpt>
      <trkpt lat="47.99815" lon="6.83563">
        <ele>867.25</ele>
        <time>2012-01-21T14:47:51Z</time>
      </trkpt>
      <trkpt lat="47.99804" lon="6.83564">
        <ele>865.8</ele>
        <time>2012-01-21T14:48:02Z</time>
      </trkpt>
      <trkpt lat="47.99801" lon="6.83565">
        <ele>864.36</ele>
        <time>2012-01-21T14:48:27Z</time>
      </trkpt>
      <trkpt lat="47.99801" lon="6.83565">
        <ele>855.23</ele>
        <time>2012-01-21T14:48:42Z</time>
      </trkpt>
      <trkpt lat="47.99801" lon="6.83565">
        <ele>864.84</ele>
        <time>2012-01-21T14:48:43Z</time>
      </trkpt>
      <trkpt lat="47.99801" lon="6.83565">
        <ele>865.32</ele>
        <time>2012-01-21T14:48:58Z</time>
      </trkpt>
      <trkpt lat="47.99798" lon="6.83568">
        <ele>863.4</ele>
        <time>2012-01-21T14:54:12Z</time>
      </trkpt>
      <trkpt lat="47.99792" lon="6.83567">
        <ele>861.96</ele>
        <time>2012-01-21T14:54:24Z</time>
      </trkpt>
      <trkpt lat="47.99778" lon="6.83569">
        <ele>860.04</ele>
        <time>2012-01-21T14:54:39Z</time>
      </trkpt>
      <trkpt lat="47.99768" lon="6.83573">
        <ele>859.56</ele>
        <time>2012-01-21T14:54:51Z</time>
      </trkpt>
      <trkpt lat="47.9976" lon="6.83578">
        <ele>859.56</ele>
        <time>2012-01-21T14:55:02Z</time>
      </trkpt>
      <trkpt lat="47.99748" lon="6.83581">
        <ele>859.56</ele>
        <time>2012-01-21T14:55:14Z</time>
      </trkpt>
      <trkpt lat="47.99742" lon="6.83581">
        <ele>859.56</ele>
        <time>2012-01-21T14:55:26Z</time>
      </trkpt>
      <trkpt lat="47.99735" lon="6.83583">
        <ele>860.04</ele>
        <time>2012-01-21T14:55:40Z</time>
      </trkpt>
      <trkpt lat="47.99729" lon="6.83583">
        <ele>861</ele>
        <time>2012-01-21T14:55:54Z</time>
      </trkpt>
      <trkpt lat="47.99722" lon="6.83584">
        <ele>861.48</ele>
        <time>2012-01-21T14:56:04Z</time>
      </trkpt>
      <trkpt lat="47.99719" lon="6.8359">
        <ele>861.48</ele>
        <time>2012-01-21T14:56:17Z</time>
      </trkpt>
      <trkpt lat="47.99714" lon="6.83604">
        <ele>860.04</ele>
        <time>2012-01-21T14:56:28Z</time>
      </trkpt>
      <trkpt lat="47.99705" lon="6.83618">
        <ele>859.56</ele>
        <time>2012-01-21T14:56:41Z</time>
      </trkpt>
      <trkpt lat="47.997" lon="6.83633">
        <ele>859.08</ele>
        <time>2012-01-21T14:56:52Z</time>
      </trkpt>
      <trkpt lat="47.99694" lon="6.83651">
        <ele>857.63</ele>
        <time>2012-01-21T14:57:03Z</time>
      </trkpt>
      <trkpt lat="47.99682" lon="6.83668">
        <ele>857.15</ele>
        <time>2012-01-21T14:57:15Z</time>
      </trkpt>
      <trkpt lat="47.99678" lon="6.83685">
        <ele>856.67</ele>
        <time>2012-01-21T14:57:24Z</time>
      </trkpt>
      <trkpt lat="47.99676" lon="6.83689">
        <ele>856.19</ele>
        <time>2012-01-21T14:57:47Z</time>
      </trkpt>
      <trkpt lat="47.9967" lon="6.837">
        <ele>855.71</ele>
        <time>2012-01-21T14:58:38Z</time>
      </trkpt>
      <trkpt lat="47.99659" lon="6.83716">
        <ele>854.27</ele>
        <time>2012-01-21T14:58:53Z</time>
      </trkpt>
      <trkpt lat="47.99652" lon="6.83728">
        <ele>853.79</ele>
        <time>2012-01-21T14:59:03Z</time>
      </trkpt>
      <trkpt lat="47.99643" lon="6.83745">
        <ele>853.31</ele>
        <time>2012-01-21T14:59:16Z</time>
      </trkpt>
      <trkpt lat="47.99634" lon="6.83761">
        <ele>850.9</ele>
        <time>2012-01-21T14:59:31Z</time>
      </trkpt>
      <trkpt lat="47.99627" lon="6.8377">
        <ele>850.9</ele>
        <time>2012-01-21T14:59:42Z</time>
      </trkpt>
      <trkpt lat="47.99619" lon="6.83788">
        <ele>848.98</ele>
        <time>2012-01-21T14:59:56Z</time>
      </trkpt>
      <trkpt lat="47.99611" lon="6.83805">
        <ele>849.46</ele>
        <time>2012-01-21T15:00:12Z</time>
      </trkpt>
      <trkpt lat="47.99599" lon="6.83822">
        <ele>848.5</ele>
        <time>2012-01-21T15:00:27Z</time>
      </trkpt>
      <trkpt lat="47.99594" lon="6.83826">
        <ele>848.02</ele>
        <time>2012-01-21T15:00:42Z</time>
      </trkpt>
      <trkpt lat="47.99585" lon="6.83838">
        <ele>848.98</ele>
        <time>2012-01-21T15:01:08Z</time>
      </trkpt>
      <trkpt lat="47.99578" lon="6.83847">
        <ele>848.98</ele>
        <time>2012-01-21T15:01:19Z</time>
      </trkpt>
      <trkpt lat="47.99567" lon="6.83859">
        <ele>848.5</ele>
        <time>2012-01-21T15:01:33Z</time>
      </trkpt>
      <trkpt lat="47.99557" lon="6.83872">
        <ele>848.98</ele>
        <time>2012-01-21T15:01:47Z</time>
      </trkpt>
      <trkpt lat="47.99548" lon="6.83883">
        <ele>848.98</ele>
        <time>2012-01-21T15:02:00Z</time>
      </trkpt>
      <trkpt lat="47.99538" lon="6.83895">
        <ele>849.46</ele>
        <time>2012-01-21T15:02:16Z</time>
      </trkpt>
      <trkpt lat="47.99526" lon="6.83908">
        <ele>850.42</ele>
        <time>2012-01-21T15:02:32Z</time>
      </trkpt>
      <trkpt lat="47.9952" lon="6.83911">
        <ele>850.9</ele>
        <time>2012-01-21T15:02:40Z</time>
      </trkpt>
      <trkpt lat="47.99504" lon="6.83907">
        <ele>850.9</ele>
        <time>2012-01-21T15:02:56Z</time>
      </trkpt>
      <trkpt lat="47.99494" lon="6.839">
        <ele>850.9</ele>
        <time>2012-01-21T15:03:09Z</time>
      </trkpt>
      <trkpt lat="47.99492" lon="6.83899">
        <ele>849.46</ele>
        <time>2012-01-21T15:03:33Z</time>
      </trkpt>
      <trkpt lat="47.99488" lon="6.839">
        <ele>850.42</ele>
        <time>2012-01-21T15:03:59Z</time>
      </trkpt>
      <trkpt lat="47.99479" lon="6.83886">
        <ele>851.87</ele>
        <time>2012-01-21T15:04:16Z</time>
      </trkpt>
      <trkpt lat="47.99472" lon="6.8388">
        <ele>851.38</ele>
        <time>2012-01-21T15:04:23Z</time>
      </trkpt>
      <trkpt lat="47.99464" lon="6.83866">
        <ele>851.87</ele>
        <time>2012-01-21T15:04:39Z</time>
      </trkpt>
      <trkpt lat="47.99463" lon="6.83865">
        <ele>851.87</ele>
        <time>2012-01-21T15:04:40Z</time>
      </trkpt>
      <trkpt lat="47.99446" lon="6.8385">
        <ele>851.38</ele>
        <time>2012-01-21T15:04:56Z</time>
      </trkpt>
      <trkpt lat="47.9943" lon="6.83838">
        <ele>848.98</ele>
        <time>2012-01-21T15:05:10Z</time>
      </trkpt>
      <trkpt lat="47.99426" lon="6.83835">
        <ele>848.5</ele>
        <time>2012-01-21T15:05:15Z</time>
      </trkpt>
      <trkpt lat="47.9942" lon="6.83839">
        <ele>848.02</ele>
        <time>2012-01-21T15:05:34Z</time>
      </trkpt>
      <trkpt lat="47.99409" lon="6.83837">
        <ele>847.06</ele>
        <time>2012-01-21T15:11:27Z</time>
      </trkpt>
      <trkpt lat="47.99397" lon="6.8382">
        <ele>843.69</ele>
        <time>2012-01-21T15:11:42Z</time>
      </trkpt>
      <trkpt lat="47.9939" lon="6.83807">
        <ele>840.33</ele>
        <time>2012-01-21T15:11:53Z</time>
      </trkpt>
      <trkpt lat="47.99385" lon="6.83798">
        <ele>837.45</ele>
        <time>2012-01-21T15:12:00Z</time>
      </trkpt>
      <trkpt lat="47.9938" lon="6.83775">
        <ele>836.96</ele>
        <time>2012-01-21T15:12:13Z</time>
      </trkpt>
      <trkpt lat="47.99377" lon="6.83766">
        <ele>836.48</ele>
        <time>2012-01-21T15:12:17Z</time>
      </trkpt>
      <trkpt lat="47.99377" lon="6.83757">
        <ele>836</ele>
        <time>2012-01-21T15:12:21Z</time>
      </trkpt>
      <trkpt lat="47.99366" lon="6.83735">
        <ele>832.64</ele>
        <time>2012-01-21T15:12:35Z</time>
      </trkpt>
      <trkpt lat="47.99355" lon="6.83711">
        <ele>832.16</ele>
        <time>2012-01-21T15:12:51Z</time>
      </trkpt>
      <trkpt lat="47.99354" lon="6.83704">
        <ele>830.24</ele>
        <time>2012-01-21T15:12:57Z</time>
      </trkpt>
      <trkpt lat="47.99344" lon="6.83674">
        <ele>828.79</ele>
        <time>2012-01-21T15:13:15Z</time>
      </trkpt>
      <trkpt lat="47.99334" lon="6.83646">
        <ele>826.87</ele>
        <time>2012-01-21T15:13:30Z</time>
      </trkpt>
      <trkpt lat="47.99329" lon="6.83628">
        <ele>824.47</ele>
        <time>2012-01-21T15:13:40Z</time>
      </trkpt>
      <trkpt lat="47.9932" lon="6.83601">
        <ele>823.03</ele>
        <time>2012-01-21T15:13:58Z</time>
      </trkpt>
      <trkpt lat="47.99311" lon="6.83581">
        <ele>821.58</ele>
        <time>2012-01-21T15:14:09Z</time>
      </trkpt>
      <trkpt lat="47.99313" lon="6.83548">
        <ele>819.66</ele>
        <time>2012-01-21T15:14:26Z</time>
      </trkpt>
      <trkpt lat="47.99313" lon="6.83546">
        <ele>819.66</ele>
        <time>2012-01-21T15:14:27Z</time>
      </trkpt>
      <trkpt lat="47.99316" lon="6.83517">
        <ele>823.03</ele>
        <time>2012-01-21T15:14:43Z</time>
      </trkpt>
      <trkpt lat="47.99321" lon="6.83482">
        <ele>823.51</ele>
        <time>2012-01-21T15:15:01Z</time>
      </trkpt>
      <trkpt lat="47.99323" lon="6.83448">
        <ele>824.95</ele>
        <time>2012-01-21T15:15:20Z</time>
      </trkpt>
      <trkpt lat="47.99323" lon="6.8343">
        <ele>823.51</ele>
        <time>2012-01-21T15:15:31Z</time>
      </trkpt>
      <trkpt lat="47.99323" lon="6.8342">
        <ele>823.51</ele>
        <time>2012-01-21T15:15:36Z</time>
      </trkpt>
      <trkpt lat="47.99323" lon="6.83412">
        <ele>824.95</ele>
        <time>2012-01-21T15:15:40Z</time>
      </trkpt>
      <trkpt lat="47.99323" lon="6.83403">
        <ele>824.95</ele>
        <time>2012-01-21T15:15:44Z</time>
      </trkpt>
      <trkpt lat="47.99322" lon="6.8337">
        <ele>825.91</ele>
        <time>2012-01-21T15:16:02Z</time>
      </trkpt>
      <trkpt lat="47.99323" lon="6.83343">
        <ele>827.35</ele>
        <time>2012-01-21T15:16:17Z</time>
      </trkpt>
      <trkpt lat="47.99324" lon="6.83313">
        <ele>827.35</ele>
        <time>2012-01-21T15:16:33Z</time>
      </trkpt>
      <trkpt lat="47.99325" lon="6.83282">
        <ele>827.83</ele>
        <time>2012-01-21T15:16:50Z</time>
      </trkpt>
      <trkpt lat="47.99322" lon="6.83251">
        <ele>830.24</ele>
        <time>2012-01-21T15:17:07Z</time>
      </trkpt>
      <trkpt lat="47.99321" lon="6.83217">
        <ele>831.68</ele>
        <time>2012-01-21T15:17:25Z</time>
      </trkpt>
      <trkpt lat="47.9932" lon="6.83187">
        <ele>831.68</ele>
        <time>2012-01-21T15:17:41Z</time>
      </trkpt>
      <trkpt lat="47.9932" lon="6.83184">
        <ele>831.2</ele>
        <time>2012-01-21T15:17:43Z</time>
      </trkpt>
      <trkpt lat="47.99321" lon="6.8318">
        <ele>831.68</ele>
        <time>2012-01-21T15:17:47Z</time>
      </trkpt>
      <trkpt lat="47.99318" lon="6.83153">
        <ele>832.16</ele>
        <time>2012-01-21T15:18:03Z</time>
      </trkpt>
      <trkpt lat="47.99315" lon="6.83121">
        <ele>833.12</ele>
        <time>2012-01-21T15:18:19Z</time>
      </trkpt>
      <trkpt lat="47.99312" lon="6.83095">
        <ele>834.56</ele>
        <time>2012-01-21T15:18:34Z</time>
      </trkpt>
      <trkpt lat="47.99311" lon="6.83091">
        <ele>835.04</ele>
        <time>2012-01-21T15:18:36Z</time>
      </trkpt>
      <trkpt lat="47.9931" lon="6.83073">
        <ele>836</ele>
        <time>2012-01-21T15:18:46Z</time>
      </trkpt>
      <trkpt lat="47.99308" lon="6.83066">
        <ele>837.45</ele>
        <time>2012-01-21T15:18:50Z</time>
      </trkpt>
      <trkpt lat="47.99305" lon="6.83055">
        <ele>838.41</ele>
        <time>2012-01-21T15:18:55Z</time>
      </trkpt>
      <trkpt lat="47.99301" lon="6.83032">
        <ele>837.45</ele>
        <time>2012-01-21T15:19:07Z</time>
      </trkpt>
      <trkpt lat="47.99298" lon="6.82997">
        <ele>836.96</ele>
        <time>2012-01-21T15:19:24Z</time>
      </trkpt>
      <trkpt lat="47.99291" lon="6.82966">
        <ele>837.93</ele>
        <time>2012-01-21T15:19:43Z</time>
      </trkpt>
      <trkpt lat="47.9929" lon="6.82964">
        <ele>840.81</ele>
        <time>2012-01-21T15:19:44Z</time>
      </trkpt>
      <trkpt lat="47.99276" lon="6.82953">
        <ele>839.37</ele>
        <time>2012-01-21T15:19:58Z</time>
      </trkpt>
      <trkpt lat="47.99255" lon="6.82948">
        <ele>840.33</ele>
        <time>2012-01-21T15:20:14Z</time>
      </trkpt>
      <trkpt lat="47.9923" lon="6.82933">
        <ele>841.29</ele>
        <time>2012-01-21T15:20:34Z</time>
      </trkpt>
      <trkpt lat="47.99224" lon="6.8293">
        <ele>842.25</ele>
        <time>2012-01-21T15:20:39Z</time>
      </trkpt>
      <trkpt lat="47.99197" lon="6.82919">
        <ele>843.69</ele>
        <time>2012-01-21T15:21:00Z</time>
      </trkpt>
      <trkpt lat="47.99167" lon="6.82905">
        <ele>844.66</ele>
        <time>2012-01-21T15:21:22Z</time>
      </trkpt>
      <trkpt lat="47.9914" lon="6.82894">
        <ele>844.18</ele>
        <time>2012-01-21T15:21:41Z</time>
      </trkpt>
      <trkpt lat="47.99127" lon="6.82884">
        <ele>846.1</ele>
        <time>2012-01-21T15:21:51Z</time>
      </trkpt>
      <trkpt lat="47.99108" lon="6.8286">
        <ele>847.06</ele>
        <time>2012-01-21T15:22:10Z</time>
      </trkpt>
      <trkpt lat="47.99094" lon="6.82842">
        <ele>848.5</ele>
        <time>2012-01-21T15:22:23Z</time>
      </trkpt>
      <trkpt lat="47.99076" lon="6.82823">
        <ele>848.98</ele>
        <time>2012-01-21T15:22:40Z</time>
      </trkpt>
      <trkpt lat="47.99075" lon="6.82822">
        <ele>849.46</ele>
        <time>2012-01-21T15:22:41Z</time>
      </trkpt>
      <trkpt lat="47.99063" lon="6.82794">
        <ele>850.42</ele>
        <time>2012-01-21T15:22:57Z</time>
      </trkpt>
      <trkpt lat="47.99048" lon="6.82763">
        <ele>849.46</ele>
        <time>2012-01-21T15:23:16Z</time>
      </trkpt>
      <trkpt lat="47.99038" lon="6.82741">
        <ele>851.38</ele>
        <time>2012-01-21T15:23:30Z</time>
      </trkpt>
      <trkpt lat="47.99029" lon="6.82714">
        <ele>852.35</ele>
        <time>2012-01-21T15:23:45Z</time>
      </trkpt>
      <trkpt lat="47.99018" lon="6.8269">
        <ele>854.27</ele>
        <time>2012-01-21T15:23:59Z</time>
      </trkpt>
      <trkpt lat="47.99006" lon="6.82664">
        <ele>855.71</ele>
        <time>2012-01-21T15:24:16Z</time>
      </trkpt>
      <trkpt lat="47.98996" lon="6.82645">
        <ele>856.19</ele>
        <time>2012-01-21T15:24:29Z</time>
      </trkpt>
      <trkpt lat="47.98989" lon="6.82629">
        <ele>857.15</ele>
        <time>2012-01-21T15:24:40Z</time>
      </trkpt>
      <trkpt lat="47.98985" lon="6.8262">
        <ele>857.15</ele>
        <time>2012-01-21T15:24:48Z</time>
      </trkpt>
      <trkpt lat="47.98986" lon="6.8261">
        <ele>856.67</ele>
        <time>2012-01-21T15:24:54Z</time>
      </trkpt>
      <trkpt lat="47.98972" lon="6.82591">
        <ele>855.71</ele>
        <time>2012-01-21T15:25:04Z</time>
      </trkpt>
      <trkpt lat="47.98957" lon="6.82557">
        <ele>859.08</ele>
        <time>2012-01-21T15:25:24Z</time>
      </trkpt>
      <trkpt lat="47.98951" lon="6.82537">
        <ele>859.56</ele>
        <time>2012-01-21T15:25:35Z</time>
      </trkpt>
      <trkpt lat="47.98943" lon="6.82505">
        <ele>861.48</ele>
        <time>2012-01-21T15:25:52Z</time>
      </trkpt>
      <trkpt lat="47.98933" lon="6.8247">
        <ele>861</ele>
        <time>2012-01-21T15:26:11Z</time>
      </trkpt>
      <trkpt lat="47.98932" lon="6.82468">
        <ele>861</ele>
        <time>2012-01-21T15:26:12Z</time>
      </trkpt>
      <trkpt lat="47.98926" lon="6.82447">
        <ele>862.44</ele>
        <time>2012-01-21T15:26:25Z</time>
      </trkpt>
      <trkpt lat="47.98928" lon="6.82435">
        <ele>861.48</ele>
        <time>2012-01-21T15:26:32Z</time>
      </trkpt>
      <trkpt lat="47.98919" lon="6.82401">
        <ele>863.4</ele>
        <time>2012-01-21T15:26:51Z</time>
      </trkpt>
      <trkpt lat="47.9891" lon="6.82366">
        <ele>863.88</ele>
        <time>2012-01-21T15:27:09Z</time>
      </trkpt>
      <trkpt lat="47.98904" lon="6.82337">
        <ele>864.84</ele>
        <time>2012-01-21T15:27:24Z</time>
      </trkpt>
      <trkpt lat="47.98903" lon="6.82329">
        <ele>868.69</ele>
        <time>2012-01-21T15:27:28Z</time>
      </trkpt>
      <trkpt lat="47.98903" lon="6.82327">
        <ele>866.77</ele>
        <time>2012-01-21T15:27:29Z</time>
      </trkpt>
      <trkpt lat="47.98902" lon="6.82324">
        <ele>865.8</ele>
        <time>2012-01-21T15:27:31Z</time>
      </trkpt>
      <trkpt lat="47.98897" lon="6.82301">
        <ele>869.17</ele>
        <time>2012-01-21T15:27:43Z</time>
      </trkpt>
      <trkpt lat="47.98888" lon="6.82264">
        <ele>867.25</ele>
        <time>2012-01-21T15:28:02Z</time>
      </trkpt>
      <trkpt lat="47.98883" lon="6.82237">
        <ele>869.17</ele>
        <time>2012-01-21T15:28:16Z</time>
      </trkpt>
      <trkpt lat="47.98877" lon="6.82216">
        <ele>870.61</ele>
        <time>2012-01-21T15:28:28Z</time>
      </trkpt>
      <trkpt lat="47.98875" lon="6.82209">
        <ele>869.17</ele>
        <time>2012-01-21T15:28:32Z</time>
      </trkpt>
      <trkpt lat="47.98868" lon="6.82184">
        <ele>870.61</ele>
        <time>2012-01-21T15:28:48Z</time>
      </trkpt>
      <trkpt lat="47.98863" lon="6.8215">
        <ele>871.57</ele>
        <time>2012-01-21T15:29:02Z</time>
      </trkpt>
      <trkpt lat="47.98859" lon="6.82122">
        <ele>872.05</ele>
        <time>2012-01-21T15:29:16Z</time>
      </trkpt>
      <trkpt lat="47.98858" lon="6.82119">
        <ele>872.53</ele>
        <time>2012-01-21T15:29:18Z</time>
      </trkpt>
      <trkpt lat="47.98857" lon="6.82116">
        <ele>872.53</ele>
        <time>2012-01-21T15:29:20Z</time>
      </trkpt>
      <trkpt lat="47.98849" lon="6.82085">
        <ele>874.46</ele>
        <time>2012-01-21T15:29:35Z</time>
      </trkpt>
      <trkpt lat="47.98848" lon="6.82073">
        <ele>874.46</ele>
        <time>2012-01-21T15:29:42Z</time>
      </trkpt>
      <trkpt lat="47.98846" lon="6.82069">
        <ele>874.94</ele>
        <time>2012-01-21T15:29:44Z</time>
      </trkpt>
      <trkpt lat="47.98845" lon="6.82063">
        <ele>875.9</ele>
        <time>2012-01-21T15:29:47Z</time>
      </trkpt>
      <trkpt lat="47.98843" lon="6.82053">
        <ele>876.38</ele>
        <time>2012-01-21T15:29:53Z</time>
      </trkpt>
      <trkpt lat="47.98841" lon="6.82041">
        <ele>875.9</ele>
        <time>2012-01-21T15:29:59Z</time>
      </trkpt>
      <trkpt lat="47.9884" lon="6.82026">
        <ele>876.38</ele>
        <time>2012-01-21T15:30:09Z</time>
      </trkpt>
      <trkpt lat="47.98839" lon="6.82017">
        <ele>876.86</ele>
        <time>2012-01-21T15:30:13Z</time>
      </trkpt>
      <trkpt lat="47.98833" lon="6.81993">
        <ele>877.82</ele>
        <time>2012-01-21T15:30:26Z</time>
      </trkpt>
      <trkpt lat="47.98822" lon="6.81968">
        <ele>878.3</ele>
        <time>2012-01-21T15:30:40Z</time>
      </trkpt>
      <trkpt lat="47.98815" lon="6.81959">
        <ele>879.26</ele>
        <time>2012-01-21T15:30:46Z</time>
      </trkpt>
      <trkpt lat="47.9881" lon="6.81946">
        <ele>879.74</ele>
        <time>2012-01-21T15:30:53Z</time>
      </trkpt>
      <trkpt lat="47.98798" lon="6.81925">
        <ele>881.19</ele>
        <time>2012-01-21T15:31:08Z</time>
      </trkpt>
      <trkpt lat="47.98798" lon="6.81924">
        <ele>881.19</ele>
        <time>2012-01-21T15:31:09Z</time>
      </trkpt>
      <trkpt lat="47.98791" lon="6.81915">
        <ele>881.19</ele>
        <time>2012-01-21T15:31:15Z</time>
      </trkpt>
      <trkpt lat="47.9878" lon="6.81889">
        <ele>884.07</ele>
        <time>2012-01-21T15:31:30Z</time>
      </trkpt>
      <trkpt lat="47.98772" lon="6.81866">
        <ele>885.03</ele>
        <time>2012-01-21T15:31:45Z</time>
      </trkpt>
      <trkpt lat="47.98765" lon="6.81838">
        <ele>885.99</ele>
        <time>2012-01-21T15:31:59Z</time>
      </trkpt>
      <trkpt lat="47.98761" lon="6.81815">
        <ele>887.43</ele>
        <time>2012-01-21T15:32:12Z</time>
      </trkpt>
      <trkpt lat="47.9876" lon="6.81802">
        <ele>887.91</ele>
        <time>2012-01-21T15:32:19Z</time>
      </trkpt>
      <trkpt lat="47.98757" lon="6.81788">
        <ele>888.88</ele>
        <time>2012-01-21T15:32:27Z</time>
      </trkpt>
      <trkpt lat="47.98753" lon="6.81759">
        <ele>890.32</ele>
        <time>2012-01-21T15:32:42Z</time>
      </trkpt>
      <trkpt lat="47.98748" lon="6.81734">
        <ele>893.68</ele>
        <time>2012-01-21T15:32:56Z</time>
      </trkpt>
      <trkpt lat="47.98746" lon="6.81705">
        <ele>893.2</ele>
        <time>2012-01-21T15:33:10Z</time>
      </trkpt>
      <trkpt lat="47.98744" lon="6.81693">
        <ele>896.57</ele>
        <time>2012-01-21T15:33:18Z</time>
      </trkpt>
      <trkpt lat="47.98743" lon="6.81679">
        <ele>894.16</ele>
        <time>2012-01-21T15:33:27Z</time>
      </trkpt>
      <trkpt lat="47.9874" lon="6.81669">
        <ele>894.64</ele>
        <time>2012-01-21T15:33:39Z</time>
      </trkpt>
      <trkpt lat="47.98733" lon="6.81662">
        <ele>895.12</ele>
        <time>2012-01-21T15:33:52Z</time>
      </trkpt>
      <trkpt lat="47.98732" lon="6.81653">
        <ele>894.16</ele>
        <time>2012-01-21T15:34:03Z</time>
      </trkpt>
      <trkpt lat="47.98732" lon="6.81644">
        <ele>898.01</ele>
        <time>2012-01-21T15:34:11Z</time>
      </trkpt>
      <trkpt lat="47.98732" lon="6.8164">
        <ele>898.49</ele>
        <time>2012-01-21T15:34:15Z</time>
      </trkpt>
      <trkpt lat="47.98738" lon="6.81635">
        <ele>898.97</ele>
        <time>2012-01-21T15:34:33Z</time>
      </trkpt>
      <trkpt lat="47.98746" lon="6.81633">
        <ele>899.93</ele>
        <time>2012-01-21T15:34:46Z</time>
      </trkpt>
      <trkpt lat="47.98746" lon="6.81633">
        <ele>898.97</ele>
        <time>2012-01-21T15:35:10Z</time>
      </trkpt>
      <trkpt lat="47.98746" lon="6.81633">
        <ele>898.97</ele>
        <time>2012-01-21T15:35:31Z</time>
      </trkpt>
    </trkseg>
  </trk>
</gpx>